sensor_id;sensor_type;location;lat;lon;timestamp;P1;durP1;ratioP1;P2;durP2;ratioP2
8584;SDS011;7180;52.742;11.420;2023-04-10T00:00:13;31.08;;;23.33;;
8584;SDS011;7180;52.742;11.420;2023-04-10T00:02:39;30.90;;;24.43;;
8584;SDS011;7180;52.742;11.420;2023-04-10T00:05:04;32.43;;;25.33;;
8584;SDS011;7180;52.742;11.420;2023-04-10T00:07:30;31.97;;;25.40;;
8584;SDS011;7180;52.742;11.420;2023-04-10T00:09:55;31.47;;;24.37;;
8584;SDS011;7180;52.742;11.420;2023-04-10T00:12:20;30.50;;;24.33;;
8584;SDS011;7180;52.742;11.420;2023-04-10T00:14:45;31.90;;;24.73;;
8584;SDS011;7180;52.742;11.420;2023-04-10T00:17:11;30.87;;;24.33;;
8584;SDS011;7180;52.742;11.420;2023-04-10T00:19:36;28.97;;;24.00;;
8584;SDS011;7180;52.742;11.420;2023-04-10T00:22:01;29.10;;;23.67;;
8584;SDS011;7180;52.742;11.420;2023-04-10T00:24:26;31.53;;;24.83;;
8584;SDS011;7180;52.742;11.420;2023-04-10T00:26:52;31.05;;;24.67;;
8584;SDS011;7180;52.742;11.420;2023-04-10T00:29:17;29.70;;;23.00;;
8584;SDS011;7180;52.742;11.420;2023-04-10T00:31:42;29.47;;;23.37;;
8584;SDS011;7180;52.742;11.420;2023-04-10T00:34:07;26.00;;;22.63;;
8584;SDS011;7180;52.742;11.420;2023-04-10T00:36:33;25.23;;;22.53;;
8584;SDS011;7180;52.742;11.420;2023-04-10T00:38:58;26.87;;;21.93;;
8584;SDS011;7180;52.742;11.420;2023-04-10T00:41:23;23.17;;;20.23;;
8584;SDS011;7180;52.742;11.420;2023-04-10T00:43:48;24.23;;;20.93;;
8584;SDS011;7180;52.742;11.420;2023-04-10T00:46:14;24.47;;;21.13;;
8584;SDS011;7180;52.742;11.420;2023-04-10T00:48:39;24.20;;;21.03;;
8584;SDS011;7180;52.742;11.420;2023-04-10T00:51:05;25.17;;;20.90;;
8584;SDS011;7180;52.742;11.420;2023-04-10T00:53:31;27.97;;;21.73;;
8584;SDS011;7180;52.742;11.420;2023-04-10T00:55:56;25.63;;;21.93;;
8584;SDS011;7180;52.742;11.420;2023-04-10T00:58:22;25.83;;;22.03;;
8584;SDS011;7180;52.742;11.420;2023-04-10T01:00:47;29.23;;;22.15;;
8584;SDS011;7180;52.742;11.420;2023-04-10T01:03:14;26.07;;;22.63;;
8584;SDS011;7180;52.742;11.420;2023-04-10T01:06:23;27.50;;;23.20;;
8584;SDS011;7180;52.742;11.420;2023-04-10T01:13:28;29.03;;;23.23;;
8584;SDS011;7180;52.742;11.420;2023-04-10T01:16:39;30.17;;;23.60;;
8584;SDS011;7180;52.742;11.420;2023-04-10T01:18:45;28.73;;;23.37;;
8584;SDS011;7180;52.742;11.420;2023-04-10T01:21:13;30.20;;;24.27;;
8584;SDS011;7180;52.742;11.420;2023-04-10T01:26:07;28.60;;;23.87;;
8584;SDS011;7180;52.742;11.420;2023-04-10T01:31:01;28.00;;;22.30;;
8584;SDS011;7180;52.742;11.420;2023-04-10T01:33:34;25.17;;;21.30;;
8584;SDS011;7180;52.742;11.420;2023-04-10T01:36:02;26.00;;;21.57;;
8584;SDS011;7180;52.742;11.420;2023-04-10T01:38:29;23.77;;;20.00;;
8584;SDS011;7180;52.742;11.420;2023-04-10T01:40:54;20.60;;;18.40;;
8584;SDS011;7180;52.742;11.420;2023-04-10T01:43:20;19.13;;;17.23;;
8584;SDS011;7180;52.742;11.420;2023-04-10T01:45:45;18.23;;;16.53;;
8584;SDS011;7180;52.742;11.420;2023-04-10T01:48:12;17.80;;;16.10;;
8584;SDS011;7180;52.742;11.420;2023-04-10T01:50:37;18.67;;;16.67;;
8584;SDS011;7180;52.742;11.420;2023-04-10T01:53:04;20.03;;;17.17;;
8584;SDS011;7180;52.742;11.420;2023-04-10T01:55:30;19.93;;;17.87;;
8584;SDS011;7180;52.742;11.420;2023-04-10T01:57:55;24.13;;;19.80;;
8584;SDS011;7180;52.742;11.420;2023-04-10T02:00:21;22.70;;;20.13;;
8584;SDS011;7180;52.742;11.420;2023-04-10T02:02:46;21.73;;;19.20;;
8584;SDS011;7180;52.742;11.420;2023-04-10T02:05:11;22.77;;;19.70;;
8584;SDS011;7180;52.742;11.420;2023-04-10T02:07:49;25.87;;;20.60;;
8584;SDS011;7180;52.742;11.420;2023-04-10T02:10:29;23.07;;;20.60;;
8584;SDS011;7180;52.742;11.420;2023-04-10T02:12:59;21.57;;;19.27;;
8584;SDS011;7180;52.742;11.420;2023-04-10T02:15:25;21.63;;;18.53;;
8584;SDS011;7180;52.742;11.420;2023-04-10T02:17:51;21.77;;;19.33;;
8584;SDS011;7180;52.742;11.420;2023-04-10T02:20:16;21.60;;;18.30;;
8584;SDS011;7180;52.742;11.420;2023-04-10T02:22:45;19.03;;;17.13;;
8584;SDS011;7180;52.742;11.420;2023-04-10T02:25:11;19.67;;;17.67;;
8584;SDS011;7180;52.742;11.420;2023-04-10T02:27:36;19.57;;;17.50;;
8584;SDS011;7180;52.742;11.420;2023-04-10T02:30:02;19.90;;;17.80;;
8584;SDS011;7180;52.742;11.420;2023-04-10T02:32:27;19.47;;;17.53;;
8584;SDS011;7180;52.742;11.420;2023-04-10T02:34:52;19.30;;;17.30;;
8584;SDS011;7180;52.742;11.420;2023-04-10T02:37:18;18.87;;;17.07;;
8584;SDS011;7180;52.742;11.420;2023-04-10T02:39:43;19.70;;;17.70;;
8584;SDS011;7180;52.742;11.420;2023-04-10T02:42:08;18.98;;;17.05;;
8584;SDS011;7180;52.742;11.420;2023-04-10T02:44:33;19.98;;;17.88;;
8584;SDS011;7180;52.742;11.420;2023-04-10T02:46:58;17.88;;;16.17;;
8584;SDS011;7180;52.742;11.420;2023-04-10T02:49:23;18.45;;;16.63;;
8584;SDS011;7180;52.742;11.420;2023-04-10T02:51:48;18.20;;;16.42;;
8584;SDS011;7180;52.742;11.420;2023-04-10T02:54:14;17.67;;;15.93;;
8584;SDS011;7180;52.742;11.420;2023-04-10T02:56:39;18.53;;;16.70;;
8584;SDS011;7180;52.742;11.420;2023-04-10T02:59:04;19.40;;;17.50;;
8584;SDS011;7180;52.742;11.420;2023-04-10T03:01:29;18.30;;;16.60;;
8584;SDS011;7180;52.742;11.420;2023-04-10T03:03:55;18.30;;;16.50;;
8584;SDS011;7180;52.742;11.420;2023-04-10T03:06:21;17.20;;;15.60;;
8584;SDS011;7180;52.742;11.420;2023-04-10T03:08:50;17.40;;;15.80;;
8584;SDS011;7180;52.742;11.420;2023-04-10T03:11:15;18.17;;;16.43;;
8584;SDS011;7180;52.742;11.420;2023-04-10T03:13:40;18.85;;;16.95;;
8584;SDS011;7180;52.742;11.420;2023-04-10T03:16:05;18.92;;;16.92;;
8584;SDS011;7180;52.742;11.420;2023-04-10T03:18:31;18.57;;;16.70;;
8584;SDS011;7180;52.742;11.420;2023-04-10T03:20:58;19.27;;;17.37;;
8584;SDS011;7180;52.742;11.420;2023-04-10T03:23:23;19.30;;;17.40;;
8584;SDS011;7180;52.742;11.420;2023-04-10T03:25:48;21.55;;;17.63;;
8584;SDS011;7180;52.742;11.420;2023-04-10T03:28:14;24.13;;;18.47;;
8584;SDS011;7180;52.742;11.420;2023-04-10T03:30:40;23.55;;;18.58;;
8584;SDS011;7180;52.742;11.420;2023-04-10T03:33:05;19.13;;;17.33;;
8584;SDS011;7180;52.742;11.420;2023-04-10T03:35:30;19.70;;;17.73;;
8584;SDS011;7180;52.742;11.420;2023-04-10T03:37:55;19.90;;;18.00;;
8584;SDS011;7180;52.742;11.420;2023-04-10T03:40:20;19.50;;;17.30;;
8584;SDS011;7180;52.742;11.420;2023-04-10T03:42:45;19.07;;;17.07;;
8584;SDS011;7180;52.742;11.420;2023-04-10T03:45:11;20.83;;;18.60;;
8584;SDS011;7180;52.742;11.420;2023-04-10T03:47:36;21.90;;;17.73;;
8584;SDS011;7180;52.742;11.420;2023-04-10T03:50:01;18.87;;;16.97;;
8584;SDS011;7180;52.742;11.420;2023-04-10T03:52:26;19.23;;;16.83;;
8584;SDS011;7180;52.742;11.420;2023-04-10T03:54:52;19.63;;;17.53;;
8584;SDS011;7180;52.742;11.420;2023-04-10T03:57:17;18.07;;;16.47;;
8584;SDS011;7180;52.742;11.420;2023-04-10T03:59:45;18.43;;;16.73;;
8584;SDS011;7180;52.742;11.420;2023-04-10T04:02:10;17.80;;;16.20;;
8584;SDS011;7180;52.742;11.420;2023-04-10T04:04:35;18.47;;;16.77;;
8584;SDS011;7180;52.742;11.420;2023-04-10T04:07:00;17.40;;;15.90;;
8584;SDS011;7180;52.742;11.420;2023-04-10T04:09:25;17.92;;;16.38;;
8584;SDS011;7180;52.742;11.420;2023-04-10T04:11:50;17.38;;;15.82;;
8584;SDS011;7180;52.742;11.420;2023-04-10T04:14:15;17.73;;;16.13;;
8584;SDS011;7180;52.742;11.420;2023-04-10T04:16:41;17.50;;;15.90;;
8584;SDS011;7180;52.742;11.420;2023-04-10T04:19:06;20.17;;;18.17;;
8584;SDS011;7180;52.742;11.420;2023-04-10T04:21:31;19.50;;;17.50;;
8584;SDS011;7180;52.742;11.420;2023-04-10T04:23:56;19.00;;;17.10;;
8584;SDS011;7180;52.742;11.420;2023-04-10T04:26:21;19.17;;;17.27;;
8584;SDS011;7180;52.742;11.420;2023-04-10T04:28:48;18.87;;;17.07;;
8584;SDS011;7180;52.742;11.420;2023-04-10T04:31:14;20.20;;;18.10;;
8584;SDS011;7180;52.742;11.420;2023-04-10T04:33:39;19.60;;;17.60;;
8584;SDS011;7180;52.742;11.420;2023-04-10T04:36:04;20.07;;;18.07;;
8584;SDS011;7180;52.742;11.420;2023-04-10T04:38:30;18.50;;;16.70;;
8584;SDS011;7180;52.742;11.420;2023-04-10T04:40:55;19.37;;;17.43;;
8584;SDS011;7180;52.742;11.420;2023-04-10T04:43:20;19.33;;;17.43;;
8584;SDS011;7180;52.742;11.420;2023-04-10T04:45:45;18.57;;;16.77;;
8584;SDS011;7180;52.742;11.420;2023-04-10T04:48:10;19.07;;;17.13;;
8584;SDS011;7180;52.742;11.420;2023-04-10T04:50:35;19.83;;;17.92;;
8584;SDS011;7180;52.742;11.420;2023-04-10T04:53:03;19.90;;;17.80;;
8584;SDS011;7180;52.742;11.420;2023-04-10T04:55:29;19.23;;;17.23;;
8584;SDS011;7180;52.742;11.420;2023-04-10T04:57:54;19.42;;;17.48;;
8584;SDS011;7180;52.742;11.420;2023-04-10T05:00:19;20.20;;;18.10;;
8584;SDS011;7180;52.742;11.420;2023-04-10T05:02:44;20.47;;;18.43;;
8584;SDS011;7180;52.742;11.420;2023-04-10T05:05:09;20.07;;;17.90;;
8584;SDS011;7180;52.742;11.420;2023-04-10T05:07:34;24.35;;;20.38;;
8584;SDS011;7180;52.742;11.420;2023-04-10T05:10:00;23.10;;;20.67;;
8584;SDS011;7180;52.742;11.420;2023-04-10T05:12:25;25.37;;;21.40;;
8584;SDS011;7180;52.742;11.420;2023-04-10T05:14:50;27.58;;;22.40;;
8584;SDS011;7180;52.742;11.420;2023-04-10T05:17:15;24.75;;;21.00;;
8584;SDS011;7180;52.742;11.420;2023-04-10T05:19:41;21.33;;;19.10;;
8584;SDS011;7180;52.742;11.420;2023-04-10T05:22:06;20.33;;;18.43;;
8584;SDS011;7180;52.742;11.420;2023-04-10T05:24:31;20.45;;;18.52;;
8584;SDS011;7180;52.742;11.420;2023-04-10T05:26:56;19.70;;;17.90;;
8584;SDS011;7180;52.742;11.420;2023-04-10T05:29:21;19.87;;;17.97;;
8584;SDS011;7180;52.742;11.420;2023-04-10T05:31:47;18.77;;;16.93;;
8584;SDS011;7180;52.742;11.420;2023-04-10T05:34:12;20.70;;;18.55;;
8584;SDS011;7180;52.742;11.420;2023-04-10T05:36:37;19.88;;;17.98;;
8584;SDS011;7180;52.742;11.420;2023-04-10T05:39:02;24.73;;;21.25;;
8584;SDS011;7180;52.742;11.420;2023-04-10T05:41:27;30.37;;;26.03;;
8584;SDS011;7180;52.742;11.420;2023-04-10T05:43:53;27.60;;;24.55;;
8584;SDS011;7180;52.742;11.420;2023-04-10T05:46:18;29.60;;;26.23;;
8584;SDS011;7180;52.742;11.420;2023-04-10T05:48:43;36.42;;;28.50;;
8584;SDS011;7180;52.742;11.420;2023-04-10T05:51:08;32.78;;;28.38;;
8584;SDS011;7180;52.742;11.420;2023-04-10T05:53:33;29.77;;;26.38;;
8584;SDS011;7180;52.742;11.420;2023-04-10T05:55:59;28.67;;;25.03;;
8584;SDS011;7180;52.742;11.420;2023-04-10T05:58:27;27.03;;;24.17;;
8584;SDS011;7180;52.742;11.420;2023-04-10T06:00:52;24.90;;;22.47;;
8584;SDS011;7180;52.742;11.420;2023-04-10T06:03:18;24.33;;;22.07;;
8584;SDS011;7180;52.742;11.420;2023-04-10T06:05:43;25.27;;;22.77;;
8584;SDS011;7180;52.742;11.420;2023-04-10T06:08:09;25.23;;;22.73;;
8584;SDS011;7180;52.742;11.420;2023-04-10T06:10:35;24.10;;;21.83;;
8584;SDS011;7180;52.742;11.420;2023-04-10T06:13:00;22.40;;;20.30;;
8584;SDS011;7180;52.742;11.420;2023-04-10T06:15:25;21.27;;;19.27;;
8584;SDS011;7180;52.742;11.420;2023-04-10T06:17:51;22.47;;;20.27;;
8584;SDS011;7180;52.742;11.420;2023-04-10T06:20:17;22.63;;;20.40;;
8584;SDS011;7180;52.742;11.420;2023-04-10T06:22:43;22.57;;;20.47;;
8584;SDS011;7180;52.742;11.420;2023-04-10T06:25:08;23.42;;;21.17;;
8584;SDS011;7180;52.742;11.420;2023-04-10T06:27:33;24.63;;;22.30;;
8584;SDS011;7180;52.742;11.420;2023-04-10T06:29:59;22.83;;;20.73;;
8584;SDS011;7180;52.742;11.420;2023-04-10T06:32:25;24.10;;;21.80;;
8584;SDS011;7180;52.742;11.420;2023-04-10T06:34:50;22.92;;;20.70;;
8584;SDS011;7180;52.742;11.420;2023-04-10T06:37:15;22.97;;;20.60;;
8584;SDS011;7180;52.742;11.420;2023-04-10T06:39:40;23.20;;;20.90;;
8584;SDS011;7180;52.742;11.420;2023-04-10T06:42:06;23.13;;;20.80;;
8584;SDS011;7180;52.742;11.420;2023-04-10T06:44:31;23.47;;;21.13;;
8584;SDS011;7180;52.742;11.420;2023-04-10T06:46:56;23.85;;;21.45;;
8584;SDS011;7180;52.742;11.420;2023-04-10T06:49:21;23.33;;;21.02;;
8584;SDS011;7180;52.742;11.420;2023-04-10T06:51:47;22.70;;;20.50;;
8584;SDS011;7180;52.742;11.420;2023-04-10T06:54:12;22.53;;;20.40;;
8584;SDS011;7180;52.742;11.420;2023-04-10T06:56:37;23.20;;;21.07;;
8584;SDS011;7180;52.742;11.420;2023-04-10T06:59:02;24.27;;;21.93;;
8584;SDS011;7180;52.742;11.420;2023-04-10T07:01:27;22.67;;;20.50;;
8584;SDS011;7180;52.742;11.420;2023-04-10T07:03:53;22.77;;;20.67;;
8584;SDS011;7180;52.742;11.420;2023-04-10T07:06:18;23.97;;;21.67;;
8584;SDS011;7180;52.742;11.420;2023-04-10T07:08:43;23.77;;;21.50;;
8584;SDS011;7180;52.742;11.420;2023-04-10T07:11:08;24.10;;;21.80;;
8584;SDS011;7180;52.742;11.420;2023-04-10T07:13:33;23.47;;;21.23;;
8584;SDS011;7180;52.742;11.420;2023-04-10T07:15:59;24.47;;;22.07;;
8584;SDS011;7180;52.742;11.420;2023-04-10T07:18:25;23.90;;;21.47;;
8584;SDS011;7180;52.742;11.420;2023-04-10T07:20:51;23.40;;;21.10;;
8584;SDS011;7180;52.742;11.420;2023-04-10T07:23:16;23.40;;;21.10;;
8584;SDS011;7180;52.742;11.420;2023-04-10T07:25:41;24.90;;;22.43;;
8584;SDS011;7180;52.742;11.420;2023-04-10T07:28:06;24.43;;;22.10;;
8584;SDS011;7180;52.742;11.420;2023-04-10T07:30:31;23.85;;;21.58;;
8584;SDS011;7180;52.742;11.420;2023-04-10T07:32:56;24.33;;;21.92;;
8584;SDS011;7180;52.742;11.420;2023-04-10T07:35:22;23.88;;;21.45;;
8584;SDS011;7180;52.742;11.420;2023-04-10T07:37:47;24.47;;;21.87;;
8584;SDS011;7180;52.742;11.420;2023-04-10T07:40:15;24.83;;;22.33;;
8584;SDS011;7180;52.742;11.420;2023-04-10T07:42:44;25.67;;;23.10;;
8584;SDS011;7180;52.742;11.420;2023-04-10T07:45:10;24.43;;;22.03;;
8584;SDS011;7180;52.742;11.420;2023-04-10T07:47:35;25.50;;;22.97;;
8584;SDS011;7180;52.742;11.420;2023-04-10T07:50:00;24.35;;;21.90;;
8584;SDS011;7180;52.742;11.420;2023-04-10T07:52:25;25.47;;;22.87;;
8584;SDS011;7180;52.742;11.420;2023-04-10T07:54:50;24.50;;;22.08;;
8584;SDS011;7180;52.742;11.420;2023-04-10T07:57:16;26.00;;;23.43;;
8584;SDS011;7180;52.742;11.420;2023-04-10T07:59:41;25.47;;;22.87;;
8584;SDS011;7180;52.742;11.420;2023-04-10T08:02:06;25.27;;;22.67;;
8584;SDS011;7180;52.742;11.420;2023-04-10T08:04:31;24.48;;;22.17;;
8584;SDS011;7180;52.742;11.420;2023-04-10T08:06:56;24.03;;;21.73;;
8584;SDS011;7180;52.742;11.420;2023-04-10T08:09:22;24.53;;;22.13;;
8584;SDS011;7180;52.742;11.420;2023-04-10T08:11:47;24.52;;;22.23;;
8584;SDS011;7180;52.742;11.420;2023-04-10T08:14:12;24.45;;;22.05;;
8584;SDS011;7180;52.742;11.420;2023-04-10T08:16:37;23.90;;;21.47;;
8584;SDS011;7180;52.742;11.420;2023-04-10T08:19:03;23.97;;;21.60;;
8584;SDS011;7180;52.742;11.420;2023-04-10T08:21:29;24.33;;;22.03;;
8584;SDS011;7180;52.742;11.420;2023-04-10T08:23:55;23.77;;;21.47;;
8584;SDS011;7180;52.742;11.420;2023-04-10T08:26:20;23.37;;;21.17;;
8584;SDS011;7180;52.742;11.420;2023-04-10T08:28:46;22.80;;;20.70;;
8584;SDS011;7180;52.742;11.420;2023-04-10T08:31:14;23.10;;;20.90;;
8584;SDS011;7180;52.742;11.420;2023-04-10T08:33:39;23.57;;;21.33;;
8584;SDS011;7180;52.742;11.420;2023-04-10T08:36:04;24.47;;;22.17;;
8584;SDS011;7180;52.742;11.420;2023-04-10T08:38:30;23.40;;;21.20;;
8584;SDS011;7180;52.742;11.420;2023-04-10T08:40:56;23.40;;;21.20;;
8584;SDS011;7180;52.742;11.420;2023-04-10T08:43:21;21.20;;;19.27;;
8584;SDS011;7180;52.742;11.420;2023-04-10T08:45:46;23.40;;;21.10;;
8584;SDS011;7180;52.742;11.420;2023-04-10T08:48:11;23.23;;;21.03;;
8584;SDS011;7180;52.742;11.420;2023-04-10T08:50:40;21.97;;;19.93;;
8584;SDS011;7180;52.742;11.420;2023-04-10T08:53:10;22.47;;;20.47;;
8584;SDS011;7180;52.742;11.420;2023-04-10T08:55:36;21.40;;;19.47;;
8584;SDS011;7180;52.742;11.420;2023-04-10T08:58:02;20.90;;;19.00;;
8584;SDS011;7180;52.742;11.420;2023-04-10T09:00:28;20.60;;;18.70;;
8584;SDS011;7180;52.742;11.420;2023-04-10T09:02:55;20.60;;;18.70;;
8584;SDS011;7180;52.742;11.420;2023-04-10T09:05:23;21.23;;;19.13;;
8584;SDS011;7180;52.742;11.420;2023-04-10T09:07:49;21.10;;;19.13;;
8584;SDS011;7180;52.742;11.420;2023-04-10T09:10:14;21.53;;;19.53;;
8584;SDS011;7180;52.742;11.420;2023-04-10T09:12:43;21.13;;;19.23;;
8584;SDS011;7180;52.742;11.420;2023-04-10T09:15:09;22.13;;;19.93;;
8584;SDS011;7180;52.742;11.420;2023-04-10T09:17:35;21.67;;;19.77;;
8584;SDS011;7180;52.742;11.420;2023-04-10T09:20:00;22.30;;;20.20;;
8584;SDS011;7180;52.742;11.420;2023-04-10T09:22:32;21.40;;;19.40;;
8584;SDS011;7180;52.742;11.420;2023-04-10T09:24:58;20.53;;;18.73;;
8584;SDS011;7180;52.742;11.420;2023-04-10T09:27:27;20.03;;;18.23;;
8584;SDS011;7180;52.742;11.420;2023-04-10T09:29:55;19.77;;;17.93;;
8584;SDS011;7180;52.742;11.420;2023-04-10T09:35:00;19.40;;;17.57;;
8584;SDS011;7180;52.742;11.420;2023-04-10T09:37:32;20.90;;;18.80;;
8584;SDS011;7180;52.742;11.420;2023-04-10T09:39:58;21.70;;;19.63;;
8584;SDS011;7180;52.742;11.420;2023-04-10T09:42:36;21.00;;;19.17;;
8584;SDS011;7180;52.742;11.420;2023-04-10T09:45:01;20.50;;;18.57;;
8584;SDS011;7180;52.742;11.420;2023-04-10T09:47:27;21.17;;;19.20;;
8584;SDS011;7180;52.742;11.420;2023-04-10T09:49:53;19.90;;;18.20;;
8584;SDS011;7180;52.742;11.420;2023-04-10T09:52:22;18.67;;;17.07;;
8584;SDS011;7180;52.742;11.420;2023-04-10T09:54:49;16.17;;;14.87;;
8584;SDS011;7180;52.742;11.420;2023-04-10T09:57:15;16.13;;;14.93;;
8584;SDS011;7180;52.742;11.420;2023-04-10T09:59:42;16.50;;;15.23;;
8584;SDS011;7180;52.742;11.420;2023-04-10T10:02:10;15.30;;;14.10;;
8584;SDS011;7180;52.742;11.420;2023-04-10T10:04:37;15.20;;;13.90;;
8584;SDS011;7180;52.742;11.420;2023-04-10T10:07:03;15.40;;;14.23;;
8584;SDS011;7180;52.742;11.420;2023-04-10T10:09:28;15.00;;;13.87;;
8584;SDS011;7180;52.742;11.420;2023-04-10T10:11:53;14.80;;;13.60;;
8584;SDS011;7180;52.742;11.420;2023-04-10T10:14:19;15.00;;;13.80;;
8584;SDS011;7180;52.742;11.420;2023-04-10T10:16:46;15.40;;;14.10;;
8584;SDS011;7180;52.742;11.420;2023-04-10T10:21:51;14.07;;;12.87;;
8584;SDS011;7180;52.742;11.420;2023-04-10T10:24:16;14.63;;;13.53;;
8584;SDS011;7180;52.742;11.420;2023-04-10T10:26:42;14.37;;;13.27;;
8584;SDS011;7180;52.742;11.420;2023-04-10T10:29:08;14.33;;;13.30;;
8584;SDS011;7180;52.742;11.420;2023-04-10T10:31:37;14.53;;;13.43;;
8584;SDS011;7180;52.742;11.420;2023-04-10T10:34:04;13.80;;;12.80;;
8584;SDS011;7180;52.742;11.420;2023-04-10T10:36:31;12.83;;;11.90;;
8584;SDS011;7180;52.742;11.420;2023-04-10T10:39:04;13.70;;;12.70;;
8584;SDS011;7180;52.742;11.420;2023-04-10T10:41:39;14.33;;;13.23;;
8584;SDS011;7180;52.742;11.420;2023-04-10T10:44:10;14.00;;;13.00;;
8584;SDS011;7180;52.742;11.420;2023-04-10T10:46:42;13.33;;;12.33;;
8584;SDS011;7180;52.742;11.420;2023-04-10T10:49:08;13.80;;;12.70;;
8584;SDS011;7180;52.742;11.420;2023-04-10T10:51:46;13.25;;;12.25;;
8584;SDS011;7180;52.742;11.420;2023-04-10T10:54:28;13.83;;;12.83;;
8584;SDS011;7180;52.742;11.420;2023-04-10T10:56:53;14.10;;;13.00;;
8584;SDS011;7180;52.742;11.420;2023-04-10T10:59:38;13.73;;;12.73;;
8584;SDS011;7180;52.742;11.420;2023-04-10T11:02:13;13.37;;;12.37;;
8584;SDS011;7180;52.742;11.420;2023-04-10T11:04:45;14.00;;;12.90;;
8584;SDS011;7180;52.742;11.420;2023-04-10T11:07:10;13.47;;;12.40;;
8584;SDS011;7180;52.742;11.420;2023-04-10T11:09:49;14.17;;;13.10;;
8584;SDS011;7180;52.742;11.420;2023-04-10T11:12:15;13.33;;;12.43;;
8584;SDS011;7180;52.742;11.420;2023-04-10T11:14:41;13.70;;;12.70;;
8584;SDS011;7180;52.742;11.420;2023-04-10T11:17:06;14.07;;;12.97;;
8584;SDS011;7180;52.742;11.420;2023-04-10T11:19:55;13.70;;;12.70;;
8584;SDS011;7180;52.742;11.420;2023-04-10T11:22:16;12.77;;;11.90;;
8584;SDS011;7180;52.742;11.420;2023-04-10T11:30:00;13.30;;;12.40;;
8584;SDS011;7180;52.742;11.420;2023-04-10T11:32:27;13.40;;;12.50;;
8584;SDS011;7180;52.742;11.420;2023-04-10T11:34:52;13.43;;;12.43;;
8584;SDS011;7180;52.742;11.420;2023-04-10T11:37:23;14.60;;;13.50;;
8584;SDS011;7180;52.742;11.420;2023-04-10T11:40:01;14.07;;;13.07;;
8584;SDS011;7180;52.742;11.420;2023-04-10T11:42:26;13.70;;;12.70;;
8584;SDS011;7180;52.742;11.420;2023-04-10T11:44:51;14.00;;;12.90;;
8584;SDS011;7180;52.742;11.420;2023-04-10T11:47:16;12.97;;;11.97;;
8584;SDS011;7180;52.742;11.420;2023-04-10T11:49:42;13.40;;;12.40;;
8584;SDS011;7180;52.742;11.420;2023-04-10T11:52:07;14.07;;;13.17;;
8584;SDS011;7180;52.742;11.420;2023-04-10T11:54:32;14.00;;;13.00;;
8584;SDS011;7180;52.742;11.420;2023-04-10T11:59:26;14.70;;;13.60;;
8584;SDS011;7180;52.742;11.420;2023-04-10T12:01:52;14.60;;;13.47;;
8584;SDS011;7180;52.742;11.420;2023-04-10T12:04:19;15.77;;;14.57;;
8584;SDS011;7180;52.742;11.420;2023-04-10T12:06:48;14.70;;;13.50;;
8584;SDS011;7180;52.742;11.420;2023-04-10T12:09:14;14.70;;;13.70;;
8584;SDS011;7180;52.742;11.420;2023-04-10T12:11:46;15.23;;;14.03;;
8584;SDS011;7180;52.742;11.420;2023-04-10T12:14:12;14.67;;;13.47;;
8584;SDS011;7180;52.742;11.420;2023-04-10T12:16:37;14.33;;;13.33;;
8584;SDS011;7180;52.742;11.420;2023-04-10T12:19:02;15.43;;;14.23;;
8584;SDS011;7180;52.742;11.420;2023-04-10T12:21:27;14.90;;;13.70;;
8584;SDS011;7180;52.742;11.420;2023-04-10T12:23:53;15.90;;;14.70;;
8584;SDS011;7180;52.742;11.420;2023-04-10T12:26:19;14.93;;;13.83;;
8584;SDS011;7180;52.742;11.420;2023-04-10T12:28:54;15.20;;;14.10;;
8584;SDS011;7180;52.742;11.420;2023-04-10T12:31:34;15.37;;;14.07;;
8584;SDS011;7180;52.742;11.420;2023-04-10T12:34:00;15.30;;;14.10;;
8584;SDS011;7180;52.742;11.420;2023-04-10T12:36:26;15.77;;;14.57;;
8584;SDS011;7180;52.742;11.420;2023-04-10T12:38:53;16.03;;;14.83;;
8584;SDS011;7180;52.742;11.420;2023-04-10T12:41:20;16.60;;;15.30;;
8584;SDS011;7180;52.742;11.420;2023-04-10T12:43:46;15.53;;;14.33;;
8584;SDS011;7180;52.742;11.420;2023-04-10T12:46:21;15.80;;;14.60;;
8584;SDS011;7180;52.742;11.420;2023-04-10T12:48:47;15.27;;;14.07;;
8584;SDS011;7180;52.742;11.420;2023-04-10T12:51:12;15.20;;;14.05;;
8584;SDS011;7180;52.742;11.420;2023-04-10T12:53:46;15.70;;;14.38;;
8584;SDS011;7180;52.742;11.420;2023-04-10T12:56:11;16.00;;;14.63;;
8584;SDS011;7180;52.742;11.420;2023-04-10T12:58:37;15.73;;;14.53;;
8584;SDS011;7180;52.742;11.420;2023-04-10T13:01:04;14.57;;;13.37;;
8584;SDS011;7180;52.742;11.420;2023-04-10T13:03:30;14.80;;;13.70;;
8584;SDS011;7180;52.742;11.420;2023-04-10T13:05:55;15.30;;;14.10;;
8584;SDS011;7180;52.742;11.420;2023-04-10T13:08:21;15.13;;;13.93;;
8584;SDS011;7180;52.742;11.420;2023-04-10T13:10:46;14.33;;;13.17;;
8584;SDS011;7180;52.742;11.420;2023-04-10T13:13:12;13.77;;;12.77;;
8584;SDS011;7180;52.742;11.420;2023-04-10T13:15:37;14.13;;;13.13;;
8584;SDS011;7180;52.742;11.420;2023-04-10T13:18:03;13.87;;;12.87;;
8584;SDS011;7180;52.742;11.420;2023-04-10T13:20:30;14.23;;;13.23;;
8584;SDS011;7180;52.742;11.420;2023-04-10T13:22:56;14.63;;;13.52;;
8584;SDS011;7180;52.742;11.420;2023-04-10T13:25:21;17.50;;;15.90;;
8584;SDS011;7180;52.742;11.420;2023-04-10T13:27:47;15.87;;;14.47;;
8584;SDS011;7180;52.742;11.420;2023-04-10T13:30:12;15.53;;;14.23;;
8584;SDS011;7180;52.742;11.420;2023-04-10T13:32:37;14.27;;;13.27;;
8584;SDS011;7180;52.742;11.420;2023-04-10T13:35:02;14.97;;;13.87;;
8584;SDS011;7180;52.742;11.420;2023-04-10T13:37:28;16.53;;;15.03;;
8584;SDS011;7180;52.742;11.420;2023-04-10T13:39:53;15.97;;;14.67;;
8584;SDS011;7180;52.742;11.420;2023-04-10T13:42:18;16.00;;;14.77;;
8584;SDS011;7180;52.742;11.420;2023-04-10T13:44:43;15.95;;;14.65;;
8584;SDS011;7180;52.742;11.420;2023-04-10T13:47:09;15.23;;;13.93;;
8584;SDS011;7180;52.742;11.420;2023-04-10T13:49:34;14.90;;;13.80;;
8584;SDS011;7180;52.742;11.420;2023-04-10T13:51:59;14.87;;;13.77;;
8584;SDS011;7180;52.742;11.420;2023-04-10T13:54:25;14.80;;;13.60;;
8584;SDS011;7180;52.742;11.420;2023-04-10T13:56:50;14.47;;;13.37;;
8584;SDS011;7180;52.742;11.420;2023-04-10T13:59:15;14.90;;;13.70;;
8584;SDS011;7180;52.742;11.420;2023-04-10T14:01:40;14.20;;;13.13;;
8584;SDS011;7180;52.742;11.420;2023-04-10T14:04:06;14.23;;;13.13;;
8584;SDS011;7180;52.742;11.420;2023-04-10T14:06:31;14.13;;;13.03;;
8584;SDS011;7180;52.742;11.420;2023-04-10T14:08:56;14.90;;;13.70;;
8584;SDS011;7180;52.742;11.420;2023-04-10T14:11:21;14.63;;;13.53;;
8584;SDS011;7180;52.742;11.420;2023-04-10T14:13:47;14.30;;;13.30;;
8584;SDS011;7180;52.742;11.420;2023-04-10T14:16:12;14.57;;;13.47;;
8584;SDS011;7180;52.742;11.420;2023-04-10T14:18:38;14.80;;;13.50;;
8584;SDS011;7180;52.742;11.420;2023-04-10T14:21:03;14.05;;;13.05;;
8584;SDS011;7180;52.742;11.420;2023-04-10T14:23:28;13.97;;;12.97;;
8584;SDS011;7180;52.742;11.420;2023-04-10T14:25:53;13.77;;;12.87;;
8584;SDS011;7180;52.742;11.420;2023-04-10T14:28:18;13.97;;;12.77;;
8584;SDS011;7180;52.742;11.420;2023-04-10T14:30:44;13.70;;;12.70;;
8584;SDS011;7180;52.742;11.420;2023-04-10T14:33:10;13.63;;;12.63;;
8584;SDS011;7180;52.742;11.420;2023-04-10T14:35:35;13.10;;;12.20;;
8584;SDS011;7180;52.742;11.420;2023-04-10T14:38:00;12.80;;;11.90;;
8584;SDS011;7180;52.742;11.420;2023-04-10T14:40:26;13.37;;;12.37;;
8584;SDS011;7180;52.742;11.420;2023-04-10T14:42:51;13.20;;;12.30;;
8584;SDS011;7180;52.742;11.420;2023-04-10T14:45:17;13.13;;;12.13;;
8584;SDS011;7180;52.742;11.420;2023-04-10T14:47:42;12.13;;;11.33;;
8584;SDS011;7180;52.742;11.420;2023-04-10T14:50:07;12.70;;;11.80;;